Carrollton, Arkansas
Current Conditions -  °F | °C
As of 3:53 AM on Sunday 21 Dec 2014 (Local Time) from KHRO Reporting Station
Overcast Overcast  
Wind Chill: 36°   Ceiling: 2100
Heat Index: 39°   Visibility: 7mi
Dew Point: 38°   Wind: 5mph
Humidity: 96%   Direction: 130°SE
Pressure: 30.16"   Gusts: NA
Location:  36.2987°N, 93.2709°W
Report Text: KHRO 210953Z AUTO 13004KT 7SM OVC021 04/03 A3016 RMK AO2 SLP216 T00390033 $
Loading
Personal Weather Stations






























Interactive Weather Map New forecast layout! Learn more

10-Day Weather Forecast

Advertisements
Track Severe Weather on mobile